Time;durP1;ratioP1;P1;durP2;ratioP2;P2;SDS_P1;SDS_P2;PMS_P1;PMS_P2;Temp;Humidity;BMP_temperature;BMP_pressure;BME280_temperature;BME280_humidity;BME280_pressure;Samples;Min_cycle;Max_cycle;Signal;HPM_P1;HPM_P2
2021/08/05 00:01:59;;;;;;;4.68;0.98;;;12.50;99.90;;;;;;4953508;29;20039;-80
2021/08/05 00:04:27;;;;;;;1.10;0.80;;;12.50;99.90;;;;;;4953005;28;20039;-80
2021/08/05 00:06:55;;;;;;;1.05;0.88;;;12.50;99.90;;;;;;4952560;28;20397;-80
2021/08/05 00:09:23;;;;;;;1.25;1.15;;;12.40;99.90;;;;;;4953291;29;20054;-80
2021/08/05 00:11:51;;;;;;;0.60;0.60;;;12.50;99.90;;;;;;4940191;28;20052;-80
2021/08/05 00:14:19;;;;;;;1.45;0.85;;;12.40;99.90;;;;;;4934122;29;20051;-80
2021/08/05 00:16:47;;;;;;;0.80;0.57;;;12.40;99.90;;;;;;4939608;28;20392;-80
2021/08/05 00:19:15;;;;;;;0.75;0.60;;;12.40;99.90;;;;;;4952749;28;20412;-80
2021/08/05 00:21:43;;;;;;;0.50;0.50;;;12.50;99.90;;;;;;4951247;29;20047;-80
2021/08/05 00:24:18;;;;;;;0.50;0.50;;;12.50;99.90;;;;;;4952396;28;20047;-80
2021/08/05 00:26:46;;;;;;;0.68;0.60;;;12.50;99.90;;;;;;4950812;28;20050;-79
2021/08/05 00:29:14;;;;;;;0.60;0.60;;;12.50;99.90;;;;;;4951641;29;20058;-79
2021/08/05 00:31:42;;;;;;;0.40;0.40;;;12.50;99.90;;;;;;4952713;28;20046;-80
2021/08/05 00:34:10;;;;;;;1.85;0.52;;;12.50;99.90;;;;;;4951797;29;20043;-80
2021/08/05 00:36:38;;;;;;;3.92;1.35;;;12.50;99.90;;;;;;4950983;28;20562;-80
2021/08/05 00:39:06;;;;;;;0.38;0.38;;;12.50;99.90;;;;;;4950965;28;20055;-80
2021/08/05 00:41:34;;;;;;;0.57;0.57;;;12.60;99.90;;;;;;4950424;29;20501;-80
2021/08/05 00:44:05;;;;;;;0.98;0.57;;;12.50;99.90;;;;;;4950856;28;20054;-80
2021/08/05 00:46:33;;;;;;;0.90;0.57;;;12.50;99.90;;;;;;4935389;29;20062;-80
2021/08/05 00:49:01;;;;;;;1.15;0.70;;;12.50;99.90;;;;;;4947587;28;20043;-80
2021/08/05 00:51:29;;;;;;;0.40;0.40;;;12.50;99.90;;;;;;4932264;29;20040;-80
2021/08/05 00:53:58;;;;;;;0.40;0.40;;;12.60;99.90;;;;;;4933507;29;20051;-80
2021/08/05 00:56:27;;;;;;;2.08;0.50;;;12.60;99.90;;;;;;4930964;29;20055;-80
2021/08/05 00:58:55;;;;;;;0.43;0.43;;;12.50;99.90;;;;;;4931887;28;20047;-80
2021/08/05 01:01:28;;;;;;;0.60;0.60;;;12.50;99.90;;;;;;4932406;29;20052;-80
2021/08/05 01:03:59;;;;;;;0.70;0.60;;;12.50;99.90;;;;;;4932877;29;20392;-80
2021/08/05 01:06:39;;;;;;;1.15;0.93;;;12.50;99.90;;;;;;4932103;29;20042;-80
2021/08/05 01:09:12;;;;;;;0.68;0.68;;;12.50;99.90;;;;;;4947597;29;20397;-80
2021/08/05 01:11:58;;;;;;;0.82;0.68;;;12.50;99.90;;;;;;4939705;28;20428;-80
2021/08/05 01:14:28;;;;;;;1.00;0.93;;;12.50;99.90;;;;;;4952372;29;20757;-80
2021/08/05 01:16:58;;;;;;;1.42;1.33;;;12.40;99.90;;;;;;4950114;28;20051;-80
2021/08/05 01:19:41;;;;;;;1.02;0.80;;;12.40;99.90;;;;;;4967707;28;20046;-80
2021/08/05 01:22:21;;;;;;;1.23;0.65;;;12.50;99.90;;;;;;4953938;28;20074;-80
2021/08/05 01:25:27;;;;;;;0.50;0.50;;;12.40;99.90;;;;;;4953695;28;20062;-80
2021/08/05 01:27:56;;;;;;;0.40;0.40;;;12.40;99.90;;;;;;4965988;28;20070;-80
2021/08/05 01:30:26;;;;;;;0.43;0.43;;;12.40;99.90;;;;;;4970656;28;20043;-80
2021/08/05 01:32:56;;;;;;;0.30;0.30;;;12.40;99.90;;;;;;4961873;28;20064;-80
2021/08/05 01:35:25;;;;;;;0.60;0.60;;;12.40;99.90;;;;;;4932563;29;20048;-80
2021/08/05 01:37:54;;;;;;;0.52;0.52;;;12.30;99.90;;;;;;4935445;29;20055;-80
2021/08/05 01:40:23;;;;;;;0.40;0.40;;;12.30;99.90;;;;;;4935569;28;20051;-80
2021/08/05 01:42:53;;;;;;;0.95;0.52;;;12.30;99.90;;;;;;4969132;28;20050;-80
2021/08/05 01:45:21;;;;;;;0.50;0.50;;;12.30;99.90;;;;;;4954713;29;20047;-80
2021/08/05 01:47:50;;;;;;;0.52;0.52;;;12.40;99.90;;;;;;4954963;28;20062;-80
2021/08/05 01:50:19;;;;;;;0.55;0.55;;;12.40;99.90;;;;;;4955300;29;20477;-80
2021/08/05 01:52:49;;;;;;;0.50;0.50;;;12.40;99.90;;;;;;4954153;28;20051;-80
2021/08/05 01:55:16;;;;;;;0.40;0.40;;;12.50;99.90;;;;;;4953105;28;20051;-80
2021/08/05 01:57:45;;;;;;;0.60;0.60;;;12.40;99.90;;;;;;4937710;29;20051;-80
2021/08/05 02:00:14;;;;;;;0.50;0.50;;;12.40;99.90;;;;;;4954523;28;20523;-80
2021/08/05 02:02:42;;;;;;;0.57;0.57;;;12.40;99.90;;;;;;4955136;28;20054;-79
2021/08/05 02:05:15;;;;;;;0.93;0.60;;;12.40;99.90;;;;;;4954194;29;20047;-80
2021/08/05 02:08:00;;;;;;;0.60;0.60;;;12.40;99.90;;;;;;4953793;28;20523;-80
2021/08/05 02:10:37;;;;;;;0.75;0.70;;;12.40;99.90;;;;;;4953236;29;20059;-80
2021/08/05 02:13:15;;;;;;;1.52;1.42;;;12.40;99.90;;;;;;4950130;28;20494;-80
2021/08/05 02:15:50;;;;;;;1.00;0.85;;;12.40;99.90;;;;;;4934755;29;20052;-80
2021/08/05 02:18:19;;;;;;;0.50;0.50;;;12.40;99.90;;;;;;4970924;28;20478;-80
2021/08/05 02:20:48;;;;;;;0.50;0.50;;;12.40;99.90;;;;;;4973558;28;20051;-79
2021/08/05 02:23:17;;;;;;;0.80;0.80;;;12.40;99.90;;;;;;4973755;28;20042;-80
2021/08/05 02:25:49;;;;;;;0.88;0.88;;;12.40;99.90;;;;;;4956329;28;20051;-80
2021/08/05 02:28:18;;;;;;;0.77;0.73;;;12.40;99.90;;;;;;4973707;28;20059;-80
2021/08/05 02:30:48;;;;;;;1.10;0.80;;;12.30;99.90;;;;;;4972634;28;20046;-80
2021/08/05 02:33:17;;;;;;;2.65;0.70;;;12.30;99.90;;;;;;4974393;28;20061;-80
2021/08/05 02:35:47;;;;;;;1.10;0.77;;;12.30;99.90;;;;;;4972047;28;20053;-80
2021/08/05 02:38:15;;;;;;;3.25;1.77;;;12.30;99.90;;;;;;4972917;28;20046;-80
2021/08/05 02:40:46;;;;;;;0.90;0.60;;;12.40;99.90;;;;;;4970207;28;20085;-80
2021/08/05 02:43:15;;;;;;;0.50;0.50;;;12.40;99.90;;;;;;4953023;28;20048;-80
2021/08/05 02:45:45;;;;;;;1.83;0.80;;;12.40;99.90;;;;;;4953847;29;20544;-80
2021/08/05 02:48:14;;;;;;;0.60;0.60;;;12.40;99.90;;;;;;4952162;28;20602;-80
2021/08/05 02:50:42;;;;;;;1.05;0.82;;;12.30;99.90;;;;;;4953689;28;20051;-80
2021/08/05 02:53:11;;;;;;;1.08;1.00;;;12.30;99.90;;;;;;4953472;29;20497;-80
2021/08/05 02:55:41;;;;;;;0.60;0.60;;;12.30;99.90;;;;;;4952246;28;20043;-80
2021/08/05 02:58:11;;;;;;;0.50;0.40;;;12.30;99.90;;;;;;4954505;29;20416;-81
2021/08/05 03:00:39;;;;;;;0.70;0.70;;;12.30;99.90;;;;;;4953479;28;20051;-80
2021/08/05 03:03:07;;;;;;;0.70;0.50;;;12.30;99.90;;;;;;4952928;28;20043;-80
2021/08/05 03:05:36;;;;;;;1.67;1.15;;;12.40;99.90;;;;;;4954539;29;20055;-80
2021/08/05 03:08:04;;;;;;;0.95;0.95;;;12.40;99.90;;;;;;4954111;28;20440;-80
2021/08/05 03:10:32;;;;;;;0.77;0.77;;;12.40;99.90;;;;;;4952147;29;20051;-80
2021/08/05 03:12:59;;;;;;;0.40;0.40;;;12.40;99.90;;;;;;4953567;28;20059;-80
2021/08/05 03:15:29;;;;;;;0.50;0.50;;;12.40;99.90;;;;;;4952611;28;20061;-80
2021/08/05 03:17:57;;;;;;;0.50;0.50;;;12.40;99.90;;;;;;4969313;28;20069;-80
2021/08/05 03:20:25;;;;;;;0.40;0.40;;;12.40;99.90;;;;;;4972555;28;20049;-81
2021/08/05 03:22:53;;;;;;;2.15;0.43;;;12.50;99.90;;;;;;4972925;28;20066;-80
2021/08/05 03:25:21;;;;;;;0.45;0.45;;;12.40;99.90;;;;;;4972539;28;20655;-80
2021/08/05 03:27:49;;;;;;;0.40;0.30;;;12.40;99.90;;;;;;4972255;28;20590;-80
2021/08/05 03:30:16;;;;;;;0.40;0.40;;;12.40;99.90;;;;;;4973137;28;20503;-80
2021/08/05 03:32:44;;;;;;;3.65;0.50;;;12.40;99.90;;;;;;4966185;28;20039;-80
2021/08/05 03:35:12;;;;;;;0.50;0.50;;;12.40;99.90;;;;;;4933073;29;20067;-80
2021/08/05 03:37:40;;;;;;;0.57;0.45;;;12.40;99.90;;;;;;4934938;29;20063;-80
2021/08/05 03:40:08;;;;;;;0.75;0.50;;;12.40;99.90;;;;;;4947514;28;20047;-80
2021/08/05 03:42:36;;;;;;;0.40;0.40;;;12.40;99.90;;;;;;4950751;29;20054;-80
2021/08/05 03:45:05;;;;;;;0.90;0.70;;;12.40;99.90;;;;;;4953285;28;20047;-80
2021/08/05 03:47:33;;;;;;;0.65;0.40;;;12.40;99.90;;;;;;4953152;28;20527;-80
2021/08/05 03:50:01;;;;;;;5.45;1.52;;;12.40;99.90;;;;;;4953467;29;20047;-80
2021/08/05 03:52:29;;;;;;;0.80;0.80;;;12.50;99.90;;;;;;4953021;28;20396;-80
2021/08/05 03:55:04;;;;;;;0.80;0.50;;;12.40;99.90;;;;;;4952714;28;20051;-80
2021/08/05 03:57:32;;;;;;;0.95;0.95;;;12.40;99.90;;;;;;4953322;29;20051;-80
2021/08/05 04:00:00;;;;;;;0.63;0.50;;;12.40;99.90;;;;;;4952052;28;20074;-80
2021/08/05 04:02:38;;;;;;;0.85;0.55;;;12.40;99.90;;;;;;4953364;29;20073;-80
2021/08/05 04:05:07;;;;;;;0.40;0.40;;;12.40;99.90;;;;;;4952360;28;20067;-80
2021/08/05 04:07:35;;;;;;;0.47;0.47;;;12.40;99.90;;;;;;4944539;28;20048;-80
2021/08/05 04:10:04;;;;;;;0.75;0.75;;;12.40;99.90;;;;;;4933906;29;20393;-80
2021/08/05 04:12:32;;;;;;;0.70;0.70;;;12.40;99.90;;;;;;4918410;29;20110;-80
2021/08/05 04:15:00;;;;;;;0.80;0.80;;;12.40;99.90;;;;;;4914694;29;20048;-80
2021/08/05 04:17:28;;;;;;;1.17;1.08;;;12.40;99.90;;;;;;4926288;29;20051;-80
2021/08/05 04:19:56;;;;;;;0.90;0.70;;;12.40;99.90;;;;;;4914528;28;20077;-80
2021/08/05 04:22:24;;;;;;;2.90;0.68;;;12.40;99.90;;;;;;4914661;29;20044;-80
2021/08/05 04:24:52;;;;;;;0.90;0.80;;;12.40;99.90;;;;;;4914315;29;20051;-80
2021/08/05 04:27:19;;;;;;;0.73;0.73;;;12.40;99.90;;;;;;4913776;28;20068;-80
2021/08/05 04:29:47;;;;;;;1.33;1.13;;;12.30;99.90;;;;;;4914602;29;20056;-80
2021/08/05 04:32:15;;;;;;;0.65;0.65;;;12.30;99.90;;;;;;4914105;29;20044;-80
2021/08/05 04:34:43;;;;;;;1.63;0.90;;;12.40;99.90;;;;;;4914506;29;20052;-79
2021/08/05 04:37:11;;;;;;;0.68;0.63;;;12.40;99.90;;;;;;4914609;29;20044;-80
2021/08/05 04:39:39;;;;;;;2.83;0.80;;;12.40;99.90;;;;;;4914505;28;20486;-80
2021/08/05 04:42:07;;;;;;;1.10;0.63;;;12.40;99.90;;;;;;4925980;29;20056;-80
2021/08/05 04:44:35;;;;;;;0.50;0.50;;;12.40;99.90;;;;;;4933145;28;20044;-80
2021/08/05 04:47:03;;;;;;;0.70;0.63;;;12.50;99.90;;;;;;4933278;28;20048;-80
2021/08/05 04:49:31;;;;;;;0.88;0.63;;;12.50;99.90;;;;;;4933391;29;20059;-80
2021/08/05 04:51:59;;;;;;;0.45;0.45;;;12.50;99.90;;;;;;4933050;28;20520;-79
2021/08/05 04:54:26;;;;;;;1.40;0.90;;;12.40;99.90;;;;;;4933845;29;20394;-80
2021/08/05 04:56:54;;;;;;;0.80;0.80;;;12.40;99.90;;;;;;4932969;28;20044;-79
2021/08/05 04:59:22;;;;;;;0.77;0.77;;;12.40;99.90;;;;;;4932996;28;20129;-80
2021/08/05 05:01:50;;;;;;;0.70;0.70;;;12.50;99.90;;;;;;4933433;29;20070;-80
2021/08/05 05:04:18;;;;;;;1.20;1.00;;;12.50;99.90;;;;;;4933401;28;20513;-79
2021/08/05 05:06:46;;;;;;;2.47;1.30;;;12.50;99.90;;;;;;4933069;28;20481;-79
2021/08/05 05:09:14;;;;;;;1.13;0.90;;;12.50;99.90;;;;;;4933602;29;20044;-87
2021/08/05 05:11:43;;;;;;;3.28;1.98;;;12.50;99.90;;;;;;4932422;28;20040;-87
2021/08/05 05:14:10;;;;;;;2.38;1.83;;;12.50;99.90;;;;;;4937525;29;20063;-86
2021/08/05 05:16:38;;;;;;;2.65;2.17;;;12.50;99.90;;;;;;4935702;29;20052;-87
2021/08/05 05:19:06;;;;;;;2.47;1.83;;;12.50;99.90;;;;;;4935233;28;20047;-87
2021/08/05 05:21:34;;;;;;;6.47;3.88;;;12.60;99.90;;;;;;4919503;29;20497;-79
2021/08/05 05:24:02;;;;;;;4.57;2.97;;;12.60;99.90;;;;;;4919812;29;20043;-80
2021/08/05 05:26:36;;;;;;;5.07;3.30;;;12.70;99.90;;;;;;4936246;29;20052;-79
2021/08/05 05:29:04;;;;;;;4.47;2.85;;;12.70;99.90;;;;;;4935049;28;20066;-79
2021/08/05 05:31:32;;;;;;;5.20;3.47;;;12.70;99.90;;;;;;4936587;28;20054;-79
2021/08/05 05:34:00;;;;;;;3.28;2.97;;;12.70;99.90;;;;;;4923874;29;20055;-79
2021/08/05 05:36:27;;;;;;;5.40;3.90;;;12.80;99.90;;;;;;4916032;29;20066;-79
2021/08/05 05:38:55;;;;;;;3.78;3.33;;;12.80;99.90;;;;;;4917237;28;20052;-79
2021/08/05 05:41:23;;;;;;;5.70;3.65;;;12.80;99.90;;;;;;4923565;29;20048;-79
2021/08/05 05:43:51;;;;;;;7.82;4.15;;;12.90;99.90;;;;;;4936090;28;20047;-79
2021/08/05 05:46:20;;;;;;;7.40;4.53;;;12.90;99.90;;;;;;4936711;29;20058;-78
2021/08/05 05:48:48;;;;;;;6.93;4.85;;;12.90;99.90;;;;;;4936123;28;20527;-79
2021/08/05 05:51:16;;;;;;;5.47;4.32;;;12.90;99.90;;;;;;4935508;28;20052;-79
2021/08/05 05:53:44;;;;;;;7.82;4.32;;;12.90;99.90;;;;;;4936412;29;20413;-79
2021/08/05 05:56:12;;;;;;;8.93;5.80;;;12.90;99.90;;;;;;4935244;29;20059;-80
2021/08/05 05:58:40;;;;;;;5.13;3.67;;;12.90;99.90;;;;;;4936154;28;20043;-79
2021/08/05 06:01:08;;;;;;;5.15;3.63;;;12.90;99.90;;;;;;4936268;29;20481;-79
2021/08/05 06:03:36;;;;;;;6.82;2.92;;;13.00;99.90;;;;;;4936099;28;20043;-79
2021/08/05 06:06:04;;;;;;;5.82;4.05;;;13.00;99.90;;;;;;4936138;29;20058;-79
2021/08/05 06:08:32;;;;;;;5.15;3.80;;;13.00;99.90;;;;;;4936167;28;20043;-79
2021/08/05 06:11:00;;;;;;;5.28;4.15;;;13.00;99.90;;;;;;4934709;28;20063;-79
2021/08/05 06:13:27;;;;;;;6.70;3.85;;;13.00;99.90;;;;;;4936024;29;20397;-78
2021/08/05 06:15:55;;;;;;;5.82;2.75;;;13.00;99.90;;;;;;4935573;28;20116;-79
2021/08/05 06:18:23;;;;;;;3.33;1.83;;;13.00;99.90;;;;;;4935591;29;20044;-80
2021/08/05 06:20:51;;;;;;;3.72;2.70;;;13.00;99.90;;;;;;4935276;28;20063;-89
2021/08/05 06:23:19;;;;;;;3.53;1.92;;;13.00;99.90;;;;;;4934666;28;20055;-87
2021/08/05 06:25:46;;;;;;;2.30;2.08;;;13.00;99.90;;;;;;4935261;29;20063;-79
2021/08/05 06:28:14;;;;;;;2.90;2.53;;;13.00;99.90;;;;;;4935025;28;20071;-80
2021/08/05 06:30:45;;;;;;;3.05;2.53;;;13.00;99.90;;;;;;4935643;28;20374;-79
2021/08/05 06:33:13;;;;;;;4.05;2.97;;;13.10;99.90;;;;;;4935649;29;20058;-80
2021/08/05 06:35:41;;;;;;;2.35;2.08;;;13.00;99.90;;;;;;4943297;28;20062;-79
2021/08/05 06:38:09;;;;;;;4.60;3.20;;;13.00;99.90;;;;;;4955273;29;20054;-79
2021/08/05 06:40:36;;;;;;;3.30;3.00;;;13.00;99.90;;;;;;4953043;28;20062;-80
2021/08/05 06:43:04;;;;;;;3.67;2.75;;;13.00;99.90;;;;;;4938387;28;20044;-79
2021/08/05 06:45:32;;;;;;;3.67;3.38;;;13.00;99.90;;;;;;4958303;28;20043;-80
2021/08/05 06:48:00;;;;;;;6.25;3.40;;;12.90;99.90;;;;;;4959322;28;20047;-88
2021/08/05 06:50:28;;;;;;;4.88;3.28;;;13.00;99.90;;;;;;4942302;28;20059;-87
2021/08/05 06:52:56;;;;;;;5.50;3.05;;;13.00;99.90;;;;;;4972781;28;20042;-87
2021/08/05 06:55:24;;;;;;;4.35;3.78;;;13.00;99.90;;;;;;4973006;28;20503;-88
2021/08/05 06:57:52;;;;;;;3.80;2.72;;;13.00;99.90;;;;;;4973922;28;20051;-87
2021/08/05 07:00:20;;;;;;;5.88;2.80;;;13.00;99.90;;;;;;4973114;28;20043;-81
2021/08/05 07:02:47;;;;;;;3.75;2.45;;;13.00;99.90;;;;;;4969777;28;20062;-81
2021/08/05 07:05:15;;;;;;;2.75;2.47;;;12.90;99.90;;;;;;4954381;29;20047;-80
2021/08/05 07:07:43;;;;;;;2.90;2.20;;;12.90;99.90;;;;;;4945706;28;20593;-81
2021/08/05 07:10:12;;;;;;;2.67;2.45;;;13.00;99.90;;;;;;4934417;29;20051;-80
2021/08/05 07:12:40;;;;;;;2.55;2.03;;;12.90;99.90;;;;;;4934289;28;20465;-81
2021/08/05 07:15:09;;;;;;;3.53;2.88;;;12.90;99.90;;;;;;4935028;28;20044;-90
2021/08/05 07:17:40;;;;;;;2.22;1.95;;;12.90;99.90;;;;;;4935533;29;20044;-89
2021/08/05 07:20:09;;;;;;;5.28;2.63;;;13.00;99.90;;;;;;4934644;28;20481;-89
2021/08/05 07:22:38;;;;;;;8.35;2.33;;;13.00;99.90;;;;;;4935086;29;20039;-80
2021/08/05 07:25:08;;;;;;;2.60;2.10;;;13.00;99.90;;;;;;4933573;29;20052;-80
2021/08/05 07:27:38;;;;;;;7.07;3.20;;;13.10;99.90;;;;;;4933055;28;20050;-80
2021/08/05 07:30:08;;;;;;;3.05;2.63;;;13.00;99.90;;;;;;4934563;29;20051;-79
2021/08/05 07:32:36;;;;;;;3.97;3.45;;;13.10;99.90;;;;;;4932943;28;20044;-88
2021/08/05 07:35:05;;;;;;;5.35;3.15;;;13.10;99.90;;;;;;4915266;29;20413;-88
2021/08/05 07:37:33;;;;;;;4.50;3.58;;;13.10;99.90;;;;;;4915853;29;20040;-88
2021/08/05 07:40:01;;;;;;;6.15;3.00;;;13.20;99.90;;;;;;4923198;28;20048;-87
2021/08/05 07:42:29;;;;;;;3.55;3.25;;;13.20;99.90;;;;;;4934786;29;20050;-91
2021/08/05 07:44:57;;;;;;;3.38;2.95;;;13.20;99.90;;;;;;4935066;28;20047;-92
2021/08/05 07:47:25;;;;;;;4.55;3.10;;;13.20;99.90;;;;;;4933233;28;20054;-87
2021/08/05 07:49:53;;;;;;;5.60;4.18;;;13.20;99.90;;;;;;4934349;29;20047;-79
2021/08/05 07:52:21;;;;;;;5.70;3.67;;;13.20;99.90;;;;;;4933758;28;20055;-90
2021/08/05 07:54:49;;;;;;;12.55;5.13;;;13.30;99.90;;;;;;4934503;28;20047;-90
2021/08/05 07:57:17;;;;;;;6.90;4.85;;;13.20;99.90;;;;;;4935084;29;20056;-90
2021/08/05 07:59:45;;;;;;;5.30;3.78;;;13.20;99.90;;;;;;4933009;28;20481;-89
2021/08/05 08:02:13;;;;;;;4.57;3.80;;;13.20;99.90;;;;;;4934784;29;20044;-79
2021/08/05 08:04:41;;;;;;;9.40;4.20;;;13.20;99.90;;;;;;4932374;29;20048;-79
2021/08/05 08:07:09;;;;;;;6.97;4.82;;;13.20;99.90;;;;;;4933875;28;20044;-79
2021/08/05 08:09:37;;;;;;;5.35;3.97;;;13.30;99.90;;;;;;4932654;29;20040;-79
2021/08/05 08:12:06;;;;;;;6.80;4.00;;;13.30;99.90;;;;;;4921352;29;20052;-79
2021/08/05 08:14:34;;;;;;;6.13;4.65;;;13.40;99.90;;;;;;4915321;29;20044;-79
2021/08/05 08:17:04;;;;;;;7.73;4.60;;;13.40;99.90;;;;;;4922665;29;20047;-79
2021/08/05 08:19:35;;;;;;;5.10;4.60;;;13.40;99.90;;;;;;4933356;28;20055;-79
2021/08/05 08:22:03;;;;;;;6.55;4.90;;;13.40;99.90;;;;;;4933383;29;20400;-89
2021/08/05 08:24:31;;;;;;;6.72;6.00;;;13.40;99.90;;;;;;4933724;28;20044;-89
2021/08/05 08:26:59;;;;;;;7.38;4.35;;;13.40;99.90;;;;;;4932859;28;20255;-89
2021/08/05 08:29:27;;;;;;;9.05;6.50;;;13.50;99.90;;;;;;4934094;29;20048;-80
2021/08/05 08:31:55;;;;;;;4.88;4.35;;;13.50;99.90;;;;;;4933053;29;20433;-80
2021/08/05 08:34:23;;;;;;;9.75;6.85;;;13.50;99.90;;;;;;4934058;29;20047;-79
2021/08/05 08:36:51;;;;;;;10.73;4.90;;;13.60;99.90;;;;;;4933268;28;20054;-80
2021/08/05 08:39:22;;;;;;;5.15;4.30;;;13.70;99.90;;;;;;4932119;28;20035;-80
2021/08/05 08:41:50;;;;;;;;;;;13.70;99.90;;;;;;4932811;29;20404;-80
2021/08/05 08:44:18;;;;;;;5.80;4.32;;;13.80;99.90;;;;;;4933015;28;19923;-79
2021/08/05 08:46:47;;;;;;;4.35;3.45;;;13.80;99.90;;;;;;4932473;28;20056;-79
2021/08/05 08:49:23;;;;;;;5.53;4.28;;;13.80;99.90;;;;;;4928614;29;20473;-81
2021/08/05 08:51:53;;;;;;;5.68;3.65;;;13.80;99.90;;;;;;4914406;29;20044;-89
2021/08/05 08:54:22;;;;;;;4.85;3.92;;;13.70;99.90;;;;;;4915140;29;20059;-87
2021/08/05 08:56:54;;;;;;;5.25;3.67;;;13.70;99.90;;;;;;4913532;29;20079;-89
2021/08/05 08:59:23;;;;;;;5.80;4.18;;;13.70;99.90;;;;;;4914474;28;20059;-80
2021/08/05 09:01:51;;;;;;;7.63;4.43;;;13.70;99.90;;;;;;4914585;29;20056;-81
2021/08/05 09:04:20;;;;;;;6.32;4.93;;;13.70;99.90;;;;;;4929000;29;20705;-86
2021/08/05 09:06:48;;;;;;;6.65;5.38;;;13.80;99.90;;;;;;4914023;28;20406;-87
2021/08/05 09:09:16;;;;;;;5.18;4.18;;;13.80;99.90;;;;;;4914507;29;20413;-81
2021/08/05 09:11:44;;;;;;;7.97;5.38;;;13.90;99.90;;;;;;4922336;29;20047;-80
2021/08/05 09:14:12;;;;;;;6.60;4.25;;;13.90;99.90;;;;;;4932478;29;20063;-80
2021/08/05 09:16:40;;;;;;;9.70;4.97;;;14.00;99.90;;;;;;4933191;28;20489;-90
2021/08/05 09:19:20;;;;;;;9.07;5.35;;;14.00;99.90;;;;;;4933055;28;20062;-83
2021/08/05 09:21:52;;;;;;;5.50;5.03;;;13.90;99.90;;;;;;4933081;29;20052;-85
2021/08/05 09:24:29;;;;;;;5.68;4.10;;;13.90;99.90;;;;;;4932989;28;20040;-83
2021/08/05 09:27:03;;;;;;;6.45;3.75;;;13.90;99.90;;;;;;4931059;28;20048;-86
2021/08/05 09:29:30;;;;;;;9.57;5.50;;;13.90;99.90;;;;;;4933060;29;20059;-82
2021/08/05 09:32:03;;;;;;;6.35;4.28;;;13.80;99.90;;;;;;4931367;29;20043;-85
2021/08/05 09:34:42;;;;;;;9.07;5.75;;;13.80;99.90;;;;;;4928602;29;20048;-84
2021/08/05 09:37:14;;;;;;;6.28;5.13;;;13.90;99.90;;;;;;4913293;29;20059;-85
2021/08/05 09:39:47;;;;;;;7.90;5.35;;;13.80;99.90;;;;;;4912344;29;20048;-86
2021/08/05 09:42:16;;;;;;;9.50;3.78;;;13.80;99.90;;;;;;4915373;29;20048;-86
2021/08/05 09:44:46;;;;;;;5.82;4.75;;;13.80;99.90;;;;;;4932047;28;20040;-86
2021/08/05 09:47:20;;;;;;;9.45;5.18;;;13.90;99.90;;;;;;4931845;28;20043;-85
2021/08/05 09:49:51;;;;;;;7.85;5.25;;;14.10;99.90;;;;;;4916512;29;20409;-85
2021/08/05 09:52:33;;;;;;;7.07;5.30;;;14.20;99.90;;;;;;4932777;28;20044;-85
2021/08/05 09:55:10;;;;;;;5.50;4.95;;;14.40;99.90;;;;;;4931138;28;20284;-84
2021/08/05 09:57:41;;;;;;;6.75;5.65;;;14.40;99.90;;;;;;4931960;29;20062;-84
2021/08/05 10:00:18;;;;;;;5.78;4.30;;;14.60;99.90;;;;;;4936034;28;20082;-85
2021/08/05 10:02:49;;;;;;;10.30;5.30;;;14.60;99.90;;;;;;4935731;28;20055;-86
2021/08/05 10:05:20;;;;;;;8.95;5.43;;;14.70;99.90;;;;;;4935178;29;20064;-86
2021/08/05 10:07:59;;;;;;;9.35;6.53;;;14.80;99.90;;;;;;4934767;28;20058;-87
2021/08/05 10:10:48;;;;;;;6.75;4.78;;;15.10;99.90;;;;;;4935872;29;20043;-85
2021/08/05 10:13:36;;;;;;;7.38;4.57;;;15.30;99.90;;;;;;4914360;29;20044;-84
2021/08/05 10:16:12;;;;;;;6.25;5.57;;;15.40;99.90;;;;;;4916801;29;20045;-83
2021/08/05 10:18:41;;;;;;;5.80;4.65;;;15.60;99.90;;;;;;4934562;29;20051;-80
2021/08/05 10:21:13;;;;;;;9.27;5.10;;;15.60;99.90;;;;;;4917520;29;20051;-81
2021/08/05 10:23:43;;;;;;;6.65;5.22;;;15.70;99.90;;;;;;4934467;29;20055;-81
2021/08/05 10:26:11;;;;;;;7.65;5.63;;;15.80;99.90;;;;;;4935216;29;20069;-83
2021/08/05 10:28:39;;;;;;;6.70;4.50;;;15.80;99.90;;;;;;4935332;28;20062;-87
2021/08/05 10:31:10;;;;;;;6.88;5.38;;;15.90;99.90;;;;;;4935878;28;20040;-88
2021/08/05 10:33:41;;;;;;;4.93;4.13;;;16.00;99.90;;;;;;4935224;29;20052;-87
2021/08/05 10:36:10;;;;;;;12.57;5.68;;;16.20;99.90;;;;;;4935553;28;20404;-87
2021/08/05 10:38:41;;;;;;;8.77;5.20;;;16.40;99.90;;;;;;4936129;29;20058;-89
2021/08/05 10:41:09;;;;;;;6.07;3.72;;;16.30;99.90;;;;;;4932760;29;20044;-88
2021/08/05 10:43:37;;;;;;;5.85;5.22;;;16.50;99.90;;;;;;4933923;29;20051;-87
2021/08/05 10:46:06;;;;;;;5.05;4.43;;;16.70;99.90;;;;;;4935965;29;20047;-88
2021/08/05 10:48:35;;;;;;;6.03;4.85;;;16.60;99.90;;;;;;4933281;28;20047;-86
2021/08/05 10:51:04;;;;;;;5.60;3.95;;;16.70;99.90;;;;;;4931438;28;20051;-89
2021/08/05 10:53:31;;;;;;;6.18;4.30;;;16.60;99.90;;;;;;4934983;29;20075;-87
2021/08/05 10:56:20;;;;;;;4.97;3.97;;;16.80;99.90;;;;;;4934193;28;20048;-84
2021/08/05 10:59:02;;;;;;;4.35;3.95;;;17.00;99.90;;;;;;4933358;28;20056;-85
2021/08/05 11:01:53;;;;;;;5.07;3.10;;;16.80;99.90;;;;;;4934429;29;20055;-84
2021/08/05 11:04:51;;;;;;;4.50;4.03;;;16.90;99.90;;;;;;4934925;28;20512;-88
2021/08/05 11:07:25;;;;;;;4.32;3.83;;;17.10;99.90;;;;;;4926788;28;20498;-86
2021/08/05 11:10:15;;;;;;;3.78;3.53;;;17.40;99.90;;;;;;4933273;29;20498;-85
2021/08/05 11:12:45;;;;;;;6.20;3.00;;;17.50;99.90;;;;;;4933478;29;20421;-87
2021/08/05 11:15:21;;;;;;;;;;;17.00;99.90;;;;;;4935353;28;20067;-85
2021/08/05 11:18:10;;;;;;;3.80;3.33;;;16.80;99.90;;;;;;4933900;29;19930;-89
2021/08/05 11:20:39;;;;;;;6.68;3.08;;;16.70;99.90;;;;;;4932079;28;20515;-88
2021/08/05 11:23:34;;;;;;;3.95;2.95;;;16.60;99.90;;;;;;4933665;29;20044;-90
2021/08/05 11:26:05;;;;;;;3.35;2.72;;;16.60;99.90;;;;;;4917858;29;20055;-88
2021/08/05 11:28:48;;;;;;;6.60;2.58;;;16.70;99.90;;;;;;4933188;28;20056;-89
2021/08/05 11:31:22;;;;;;;8.73;3.13;;;16.50;99.90;;;;;;4933399;29;20048;-87
2021/08/05 11:33:56;;;;;;;3.88;3.08;;;16.40;99.90;;;;;;4918209;29;20056;-89
2021/08/05 11:36:31;;;;;;;4.13;3.00;;;16.30;99.90;;;;;;4933086;29;20059;-87
2021/08/05 11:39:27;;;;;;;4.18;3.20;;;16.10;99.90;;;;;;4933096;28;20425;-82
2021/08/05 11:42:19;;;;;;;5.93;3.47;;;15.90;99.90;;;;;;4925181;29;20511;-81
2021/08/05 11:45:02;;;;;;;4.28;3.42;;;15.80;99.90;;;;;;4932969;29;20043;-82
2021/08/05 11:47:37;;;;;;;2.95;2.33;;;15.60;99.90;;;;;;4917083;29;20486;-80
2021/08/05 11:50:12;;;;;;;3.80;3.28;;;15.50;99.90;;;;;;4933067;29;20052;-82
2021/08/05 11:52:42;;;;;;;2.65;2.45;;;15.50;99.90;;;;;;4932756;29;20043;-82
2021/08/05 11:55:11;;;;;;;;;;;15.40;99.90;;;;;;4932381;29;20047;-82
2021/08/05 11:57:40;;;;;;;3.30;2.67;;;15.40;99.90;;;;;;4934333;29;20649;-82
2021/08/05 12:00:12;;;;;;;3.70;2.47;;;15.40;99.90;;;;;;4931844;28;20048;-82
2021/08/05 12:02:42;;;;;;;3.10;2.63;;;15.50;99.90;;;;;;4901642;28;20078;-82
2021/08/05 12:05:11;;;;;;;4.97;3.15;;;15.60;99.90;;;;;;4934090;29;20066;-83
2021/08/05 12:07:48;;;;;;;3.47;2.30;;;15.70;99.90;;;;;;4933776;28;20055;-82
2021/08/05 12:10:31;;;;;;;2.92;2.72;;;15.90;99.90;;;;;;4932375;29;20052;-88
2021/08/05 12:13:06;;;;;;;2.40;2.20;;;16.10;99.90;;;;;;4914681;29;20036;-82
2021/08/05 12:15:37;;;;;;;3.75;3.45;;;16.30;99.90;;;;;;4914605;29;20059;-82
2021/08/05 12:18:10;;;;;;;3.58;3.00;;;16.60;99.90;;;;;;4930837;29;20036;-82
2021/08/05 12:20:39;;;;;;;4.47;3.63;;;17.10;99.90;;;;;;4932881;28;20063;-82
2021/08/05 12:23:17;;;;;;;3.33;2.50;;;17.40;99.90;;;;;;4932826;28;20050;-81
2021/08/05 12:25:49;;;;;;;4.70;2.00;;;17.60;99.90;;;;;;4933334;29;20051;-82
2021/08/05 12:28:19;;;;;;;2.67;2.42;;;18.00;99.90;;;;;;4933374;28;20051;-82
2021/08/05 12:30:56;;;;;;;2.60;2.40;;;18.30;99.90;;;;;;4932930;28;20055;-80
2021/08/05 12:33:33;;;;;;;2.88;2.58;;;18.20;99.90;;;;;;4932249;29;20058;-82
2021/08/05 12:36:12;;;;;;;7.45;2.90;;;18.30;99.90;;;;;;4924385;29;20419;-80
2021/08/05 12:38:59;;;;;;;5.05;3.97;;;18.50;99.90;;;;;;4933336;28;20508;-82
2021/08/05 12:41:36;;;;;;;3.00;1.70;;;18.50;99.90;;;;;;4931839;29;20048;-81
2021/08/05 12:44:12;;;;;;;3.00;2.70;;;18.30;99.90;;;;;;4933030;28;20408;-81
2021/08/05 12:46:46;;;;;;;3.40;2.83;;;18.20;99.90;;;;;;4933826;29;20118;-82
2021/08/05 12:49:15;;;;;;;2.67;1.90;;;18.30;99.90;;;;;;4936122;28;20059;-85
2021/08/05 12:51:44;;;;;;;3.47;2.88;;;18.00;99.90;;;;;;4933099;29;20071;-86
2021/08/05 12:54:13;;;;;;;2.17;1.75;;;18.00;99.90;;;;;;4932242;29;20477;-85
2021/08/05 12:56:56;;;;;;;2.60;1.73;;;18.50;99.90;;;;;;4932224;28;20396;-86
2021/08/05 12:59:39;;;;;;;3.00;2.72;;;18.50;99.90;;;;;;4931700;28;20493;-86
2021/08/05 13:02:10;;;;;;;2.55;2.35;;;18.40;99.90;;;;;;4916929;29;20491;-85
2021/08/05 13:04:43;;;;;;;1.85;1.75;;;18.40;99.90;;;;;;4932939;28;20048;-84
2021/08/05 13:07:17;;;;;;;1.83;1.63;;;18.50;99.90;;;;;;4932991;28;20040;-85